createdAt,value
2023-07-16T12:32:31.336Z,33.43
2023-07-16T12:35:01.709Z,31.55
2023-07-16T12:37:31.804Z,30.50
2023-07-16T12:40:01.658Z,31.78
2023-07-16T12:42:30.665Z,33.18
2023-07-16T12:45:00.369Z,32.88
2023-07-16T12:47:29.474Z,33.01
2023-07-16T12:49:58.544Z,32.53
2023-07-16T12:52:27.434Z,31.72
2023-07-16T12:54:58.553Z,32.12
2023-07-16T12:57:27.920Z,32.58
2023-07-16T12:59:56.867Z,32.93
2023-07-16T13:02:26.087Z,32.76
2023-07-16T13:04:55.286Z,32.12
2023-07-16T13:07:24.017Z,31.69
2023-07-16T13:10:04.408Z,31.11
2023-07-16T13:12:37.408Z,31.12
2023-07-16T13:15:07.834Z,31.85
2023-07-16T13:17:38.457Z,31.58
2023-07-16T13:20:09.194Z,31.44
2023-07-16T13:22:38.202Z,31.78
2023-07-16T13:25:08.222Z,31.72
2023-07-16T13:27:37.023Z,31.24
2023-07-16T13:30:07.448Z,31.02
2023-07-16T13:32:36.355Z,31.36
2023-07-16T13:35:05.905Z,32.08
2023-07-16T13:37:34.630Z,32.15
2023-07-16T13:40:04.566Z,32.32
2023-07-16T13:42:33.319Z,32.23
2023-07-16T13:45:02.374Z,31.70
2023-07-16T13:47:31.220Z,31.70
2023-07-16T13:50:00.172Z,32.20
2023-07-16T13:52:29.198Z,32.04
2023-07-16T13:54:58.333Z,32.68
2023-07-16T13:57:28.045Z,31.40
2023-07-16T13:59:56.959Z,31.24
2023-07-16T14:02:26.720Z,31.57
2023-07-16T14:04:55.819Z,30.71
2023-07-16T14:07:25.005Z,30.42
2023-07-16T14:09:53.906Z,30.21
2023-07-16T14:12:22.790Z,30.22
2023-07-16T14:14:54.757Z,29.19
2023-07-16T14:17:23.949Z,29.54
2023-07-16T14:19:54.278Z,29.84
2023-07-16T14:22:27.930Z,29.97
2023-07-16T14:24:56.715Z,30.60
2023-07-16T14:27:25.760Z,30.02
2023-07-16T14:30:05.052Z,28.90
2023-07-16T14:32:36.449Z,26.30
2023-07-16T14:35:08.015Z,26.34
2023-07-16T14:37:40.068Z,27.60
2023-07-16T14:40:10.291Z,28.37
2023-07-16T14:42:39.179Z,27.87
2023-07-16T14:45:09.530Z,27.68
2023-07-16T14:47:38.470Z,27.10
2023-07-16T14:50:08.402Z,27.32
2023-07-16T14:52:38.339Z,27.34
2023-07-16T14:55:08.050Z,28.25
2023-07-16T14:57:37.175Z,28.05
2023-07-16T15:00:08.859Z,27.93
2023-07-16T15:02:38.418Z,28.47
2023-07-16T15:05:09.566Z,28.33
2023-07-16T15:07:39.261Z,29.75
2023-07-16T15:10:09.089Z,30.34
2023-07-16T15:12:37.977Z,29.53
2023-07-16T15:15:12.202Z,30.37
2023-07-16T15:17:41.421Z,30.74
2023-07-16T15:20:12.101Z,30.18
2023-07-16T15:22:41.040Z,29.73
2023-07-16T15:25:10.388Z,28.63
2023-07-16T15:27:39.350Z,28.34
2023-07-16T15:30:09.752Z,28.03
2023-07-16T15:32:38.766Z,28.23
2023-07-16T15:35:08.449Z,28.16
2023-07-16T15:37:37.322Z,27.86
2023-07-16T15:40:24.443Z,27.68
2023-07-16T15:42:54.565Z,27.34
2023-07-16T15:45:23.632Z,27.84
2023-07-16T15:47:58.723Z,28.30
2023-07-16T15:50:29.462Z,28.57
2023-07-16T15:52:58.434Z,28.46
2023-07-16T15:55:27.524Z,27.66
2023-07-16T15:57:56.466Z,27.62
2023-07-16T16:00:28.094Z,28.35
2023-07-16T16:02:57.073Z,28.04
2023-07-16T16:05:26.198Z,28.45
2023-07-16T16:08:20.722Z,28.40
2023-07-16T16:10:54.280Z,28.31
2023-07-16T16:13:24.807Z,27.95
2023-07-16T16:15:54.129Z,27.42
2023-07-16T16:18:25.148Z,28.15
2023-07-16T16:20:55.367Z,28.54
2023-07-16T16:23:24.554Z,28.11
2023-07-16T16:25:53.469Z,28.48
2023-07-16T16:28:23.568Z,27.98
2023-07-16T16:30:52.489Z,28.09
2023-07-16T16:33:21.348Z,28.88
2023-07-16T16:35:50.455Z,28.86
2023-07-16T16:38:19.231Z,29.57
2023-07-16T16:40:48.442Z,29.41
2023-07-16T16:43:17.526Z,29.79
2023-07-16T16:45:47.348Z,30.08
2023-07-16T16:48:16.276Z,30.58
2023-07-16T16:50:45.241Z,30.80
2023-07-16T16:53:14.796Z,30.99
2023-07-16T16:55:45.995Z,30.93
2023-07-16T16:58:15.079Z,31.54
2023-07-16T17:00:45.666Z,31.89
2023-07-16T17:03:15.934Z,32.23
2023-07-16T17:05:45.141Z,32.86
2023-07-16T17:08:14.222Z,33.40
2023-07-16T17:10:43.248Z,33.58
2023-07-16T17:13:12.228Z,34.03
2023-07-16T17:15:47.854Z,34.54
2023-07-16T17:18:17.683Z,34.88
2023-07-16T17:20:46.518Z,35.52
2023-07-16T17:23:15.594Z,36.12
2023-07-16T17:25:44.466Z,36.64
2023-07-16T17:28:13.362Z,37.18
2023-07-16T17:30:42.345Z,38.51
2023-07-16T17:33:13.476Z,40.21
2023-07-16T17:35:42.373Z,41.76
2023-07-16T17:38:11.376Z,43.12
2023-07-16T17:40:40.260Z,44.05
2023-07-16T17:43:09.476Z,45.22
2023-07-16T17:45:38.455Z,46.58
2023-07-16T17:48:07.782Z,47.38
2023-07-16T17:50:36.588Z,48.25
2023-07-16T17:53:05.772Z,48.99
2023-07-16T17:55:34.668Z,49.50
2023-07-16T17:58:03.530Z,50.25
2023-07-16T18:00:32.358Z,51.27
2023-07-16T18:03:01.912Z,51.96
2023-07-16T18:05:31.436Z,52.78
2023-07-16T18:08:00.206Z,53.47
2023-07-16T18:10:30.635Z,54.16
2023-07-16T18:12:59.672Z,54.68
2023-07-16T18:15:28.538Z,54.90
2023-07-16T18:17:57.541Z,55.56
2023-07-16T18:20:27.555Z,55.63
2023-07-16T18:22:56.966Z,56.13
2023-07-16T18:25:26.293Z,56.94
2023-07-16T18:27:56.374Z,56.65
2023-07-16T18:30:25.381Z,56.94
2023-07-16T18:32:54.309Z,57.78
2023-07-16T18:35:23.773Z,57.66
2023-07-16T18:37:52.658Z,57.55
2023-07-16T18:40:21.606Z,57.89
2023-07-16T18:42:50.435Z,58.28
2023-07-16T18:45:19.640Z,57.96
2023-07-16T18:47:48.624Z,57.88
2023-07-16T18:50:17.828Z,58.68
2023-07-16T18:52:47.139Z,58.58
2023-07-16T18:55:16.688Z,58.83
2023-07-16T18:57:45.529Z,59.32
2023-07-16T19:00:17.516Z,59.42
2023-07-16T19:02:46.371Z,59.92
2023-07-16T19:05:16.615Z,60.39
2023-07-16T19:07:48.181Z,60.73
2023-07-16T19:10:17.362Z,61.07
2023-07-16T19:12:46.254Z,61.65
2023-07-16T19:15:15.293Z,61.52
2023-07-16T19:17:44.359Z,61.84
2023-07-16T19:20:13.968Z,62.22
2023-07-16T19:22:46.002Z,62.41
2023-07-16T19:25:15.493Z,63.17
2023-07-16T19:27:44.663Z,63.10
2023-07-16T19:30:14.206Z,63.64
2023-07-16T19:32:43.348Z,63.70
2023-07-16T19:35:12.931Z,63.99
2023-07-16T19:37:42.271Z,64.37
2023-07-16T19:40:13.539Z,64.84
2023-07-16T19:42:42.474Z,64.88
2023-07-16T19:45:12.303Z,64.64
2023-07-16T19:47:42.546Z,65.02
2023-07-16T19:50:11.605Z,65.19
2023-07-16T19:52:40.479Z,65.72
2023-07-16T19:55:09.701Z,65.40
2023-07-16T19:57:39.263Z,64.48
2023-07-16T20:00:13.183Z,64.86
2023-07-16T20:02:45.118Z,65.49
2023-07-16T20:05:14.194Z,65.68
2023-07-16T20:07:43.739Z,65.43
2023-07-16T20:10:15.645Z,65.59
2023-07-16T20:12:47.099Z,66.11
2023-07-16T20:15:16.027Z,65.72
2023-07-16T20:17:44.928Z,65.45
2023-07-16T20:20:15.918Z,65.64
2023-07-16T20:22:45.810Z,65.77
2023-07-16T20:25:15.038Z,65.58
2023-07-16T20:27:54.503Z,66.23
2023-07-16T20:30:27.370Z,65.60
2023-07-16T20:33:01.274Z,66.16
2023-07-16T20:35:30.379Z,65.57
2023-07-16T20:38:02.011Z,65.53
2023-07-16T20:40:35.006Z,65.57
2023-07-16T20:43:04.563Z,66.23
2023-07-16T20:45:36.172Z,66.32
2023-07-16T20:48:06.174Z,67.19
2023-07-16T20:50:35.430Z,66.63
2023-07-16T20:53:06.229Z,67.23
2023-07-16T20:55:35.043Z,67.17
2023-07-16T20:58:04.523Z,67.37
2023-07-16T21:00:33.258Z,67.94
2023-07-16T21:03:07.920Z,67.36
2023-07-16T21:05:36.940Z,67.20
2023-07-16T21:08:05.860Z,67.71
2023-07-16T21:10:34.826Z,67.71
2023-07-16T21:13:05.968Z,67.80
2023-07-16T21:15:34.846Z,67.82
2023-07-16T21:18:05.399Z,67.43
2023-07-16T21:20:39.335Z,67.75
2023-07-16T21:23:09.337Z,68.36
2023-07-16T21:25:38.537Z,67.99
2023-07-16T21:28:10.233Z,67.85
2023-07-16T21:30:39.624Z,67.92
2023-07-16T21:33:09.521Z,67.90
2023-07-16T21:35:38.383Z,67.99
2023-07-16T21:38:07.283Z,68.69
2023-07-16T21:40:36.422Z,68.50
2023-07-16T21:43:05.259Z,68.51
2023-07-16T21:45:34.348Z,68.77
2023-07-16T21:48:03.404Z,68.87
2023-07-16T21:50:32.501Z,69.18
2023-07-16T21:53:02.465Z,69.60
2023-07-16T21:55:31.471Z,70.09
2023-07-16T21:58:00.346Z,70.41
2023-07-16T22:00:29.351Z,70.83
2023-07-16T22:02:58.506Z,71.22
2023-07-16T22:05:27.527Z,71.48
2023-07-16T22:07:57.144Z,72.77
2023-07-16T22:10:26.462Z,72.81
2023-07-16T22:12:55.373Z,73.33
2023-07-16T22:15:25.201Z,74.00
2023-07-16T22:17:55.028Z,74.16
2023-07-16T22:20:27.238Z,75.04
2023-07-16T22:22:59.505Z,74.74
2023-07-16T22:25:28.469Z,75.32
2023-07-16T22:27:57.798Z,75.69
2023-07-16T22:30:26.957Z,76.21
2023-07-16T22:32:56.004Z,76.48
2023-07-16T22:35:24.988Z,77.06
2023-07-16T22:37:53.981Z,78.15
2023-07-16T22:40:22.889Z,78.87
2023-07-16T22:42:51.877Z,79.25
2023-07-16T22:45:20.685Z,79.56
2023-07-16T22:47:49.593Z,80.19
2023-07-16T22:50:19.467Z,80.07
2023-07-16T22:52:48.198Z,80.32
2023-07-16T22:55:17.157Z,80.69
2023-07-16T22:57:46.137Z,81.41
2023-07-16T23:00:17.056Z,82.55
2023-07-16T23:02:46.646Z,83.42
2023-07-16T23:05:15.913Z,85.00
2023-07-16T23:07:46.418Z,85.03
2023-07-16T23:10:15.356Z,86.08
2023-07-16T23:12:45.529Z,86.96
2023-07-16T23:15:16.654Z,88.21
2023-07-16T23:17:46.328Z,89.24
2023-07-16T23:20:15.170Z,90.67
2023-07-16T23:22:44.046Z,90.38
2023-07-16T23:25:13.472Z,89.28
2023-07-16T23:27:42.378Z,90.63
2023-07-16T23:30:12.418Z,93.76
2023-07-16T23:32:41.165Z,96.97
2023-07-16T23:35:10.196Z,99.06
2023-07-16T23:37:39.158Z,100.00
2023-07-16T23:40:09.507Z,100.00
2023-07-16T23:42:38.268Z,100.00
2023-07-16T23:45:08.774Z,100.00
2023-07-16T23:47:37.820Z,100.00
2023-07-16T23:50:08.189Z,100.00
2023-07-16T23:52:37.014Z,100.00
2023-07-16T23:55:07.599Z,100.00
2023-07-16T23:57:38.222Z,100.00
